createdAt,value
2023-05-09T00:00:44.826Z,51.89
2023-05-09T00:03:51.720Z,52.02
2023-05-09T00:06:54.647Z,51.99
2023-05-09T00:09:57.724Z,52.06
2023-05-09T00:13:01.084Z,52.04
2023-05-09T00:16:04.371Z,52.11
2023-05-09T00:19:07.613Z,52.06
2023-05-09T00:22:12.951Z,52.36
2023-05-09T00:25:15.930Z,52.28
2023-05-09T00:28:20.097Z,52.34
2023-05-09T00:31:22.992Z,52.62
2023-05-09T00:34:25.660Z,52.50
2023-05-09T00:37:30.672Z,52.53
2023-05-09T00:40:33.552Z,52.48
2023-05-09T00:43:36.212Z,52.62
2023-05-09T00:46:40.109Z,52.60
2023-05-09T00:49:43.083Z,52.89
2023-05-09T00:52:45.739Z,52.99
2023-05-09T00:55:48.819Z,53.06
2023-05-09T00:58:52.200Z,52.97
2023-05-09T01:01:54.794Z,53.07
2023-05-09T01:04:58.578Z,53.11
2023-05-09T01:08:10.724Z,53.26
2023-05-09T01:11:47.788Z,53.25
2023-05-09T01:15:12.739Z,53.38
2023-05-09T01:18:26.277Z,53.50
2023-05-09T01:21:32.407Z,53.62
2023-05-09T01:24:54.767Z,53.64
2023-05-09T01:28:17.006Z,53.59
2023-05-09T01:31:20.170Z,53.69
2023-05-09T01:34:26.800Z,53.83
2023-05-09T01:37:32.114Z,53.91
2023-05-09T01:40:35.994Z,54.05
2023-05-09T01:43:40.594Z,54.34
2023-05-09T01:46:45.073Z,54.54
2023-05-09T01:49:48.293Z,54.77
2023-05-09T01:52:55.080Z,54.95
2023-05-09T01:55:59.444Z,54.92
2023-05-09T01:59:02.833Z,55.03
2023-05-09T02:02:07.862Z,55.13
2023-05-09T02:05:12.360Z,55.24
2023-05-09T02:08:15.644Z,55.31
2023-05-09T02:11:18.297Z,55.27
2023-05-09T02:14:20.931Z,55.33
2023-05-09T02:17:23.513Z,55.25
2023-05-09T02:20:26.297Z,55.33
2023-05-09T02:23:29.062Z,55.48
2023-05-09T02:26:31.938Z,55.69
2023-05-09T02:29:40.581Z,55.57
2023-05-09T02:32:45.402Z,55.64
2023-05-09T02:35:48.865Z,55.61
2023-05-09T02:38:51.607Z,55.80
2023-05-09T02:41:54.164Z,55.88
2023-05-09T02:44:56.832Z,55.93
2023-05-09T02:47:59.829Z,56.02
2023-05-09T02:51:02.771Z,55.93
2023-05-09T02:54:06.474Z,56.08
2023-05-09T02:57:09.160Z,56.12
2023-05-09T03:00:12.411Z,56.23
2023-05-09T03:03:15.552Z,56.35
2023-05-09T03:06:18.349Z,56.41
2023-05-09T03:09:21.115Z,56.47
2023-05-09T03:12:24.088Z,56.48
2023-05-09T03:15:26.929Z,56.80
2023-05-09T03:18:29.524Z,56.81
2023-05-09T03:21:32.210Z,57.02
2023-05-09T03:24:34.852Z,56.97
2023-05-09T03:27:37.426Z,57.05
2023-05-09T03:30:40.000Z,57.20
2023-05-09T03:33:42.935Z,57.16
2023-05-09T03:36:45.449Z,57.29
2023-05-09T03:39:48.087Z,57.53
2023-05-09T03:42:50.610Z,57.45
2023-05-09T03:45:53.217Z,57.38
2023-05-09T03:48:55.974Z,57.62
2023-05-09T03:51:58.911Z,57.72
2023-05-09T03:55:01.534Z,57.82
2023-05-09T03:58:04.285Z,57.83
2023-05-09T04:01:06.952Z,58.16
2023-05-09T04:04:09.835Z,58.84
2023-05-09T04:07:12.790Z,58.62
2023-05-09T04:10:15.554Z,58.43
2023-05-09T04:13:18.250Z,58.38
2023-05-09T04:16:21.049Z,58.35
2023-05-09T04:19:23.855Z,58.20
2023-05-09T04:22:26.451Z,58.27
2023-05-09T04:25:29.595Z,58.32
2023-05-09T04:28:32.171Z,58.51
2023-05-09T04:31:35.306Z,58.65
2023-05-09T04:34:38.109Z,58.64
2023-05-09T04:37:40.767Z,58.62
2023-05-09T04:40:43.272Z,58.65
2023-05-09T04:43:46.107Z,58.73
2023-05-09T04:46:50.708Z,58.58
2023-05-09T04:49:53.272Z,58.84
2023-05-09T04:52:55.936Z,58.83
2023-05-09T04:55:58.513Z,58.91
2023-05-09T04:59:01.174Z,58.91
2023-05-09T05:02:03.766Z,58.90
2023-05-09T05:05:12.054Z,58.93
2023-05-09T05:08:15.200Z,59.03
2023-05-09T05:11:21.854Z,58.88
2023-05-09T05:14:24.582Z,58.93
2023-05-09T05:17:29.676Z,58.89
2023-05-09T05:20:32.659Z,58.91
2023-05-09T05:23:35.385Z,58.99
2023-05-09T05:26:38.042Z,58.95
2023-05-09T05:29:40.713Z,58.90
2023-05-09T05:32:44.154Z,58.99
2023-05-09T05:35:46.857Z,58.91
2023-05-09T05:38:49.535Z,58.81
2023-05-09T05:41:52.954Z,58.75
2023-05-09T05:44:55.803Z,58.84
2023-05-09T05:47:58.484Z,58.69
2023-05-09T05:51:01.197Z,58.63
2023-05-09T05:54:04.128Z,58.57
2023-05-09T05:57:08.284Z,58.73
2023-05-09T06:00:11.865Z,58.66
2023-05-09T06:03:14.701Z,58.52
2023-05-09T06:06:17.508Z,58.45
2023-05-09T06:09:20.031Z,58.23
2023-05-09T06:12:22.568Z,58.05
2023-05-09T06:15:25.148Z,57.79
2023-05-09T06:18:28.058Z,57.55
2023-05-09T06:21:30.625Z,57.41
2023-05-09T06:24:36.272Z,57.35
2023-05-09T06:27:39.342Z,57.23
2023-05-09T06:30:41.852Z,57.23
2023-05-09T06:33:44.452Z,57.19
2023-05-09T06:36:47.229Z,57.01
2023-05-09T06:39:51.132Z,56.65
2023-05-09T06:42:53.759Z,56.35
2023-05-09T06:45:56.294Z,56.44
2023-05-09T06:49:01.791Z,56.33
2023-05-09T06:52:04.555Z,56.37
2023-05-09T06:55:08.333Z,56.22
2023-05-09T06:58:12.230Z,56.19
2023-05-09T07:01:14.781Z,55.99
2023-05-09T07:04:17.361Z,56.04
2023-05-09T07:07:19.917Z,55.60
2023-05-09T07:10:22.570Z,55.19
2023-05-09T07:13:25.377Z,54.80
2023-05-09T07:16:29.570Z,54.37
2023-05-09T07:19:32.226Z,54.39
2023-05-09T07:22:36.978Z,54.02
2023-05-09T07:25:40.457Z,53.20
2023-05-09T07:28:43.103Z,53.31
2023-05-09T07:31:46.185Z,53.14
2023-05-09T07:34:48.761Z,53.27
2023-05-09T07:37:51.376Z,52.97
2023-05-09T07:40:53.932Z,52.81
2023-05-09T07:43:56.801Z,52.98
2023-05-09T07:46:59.989Z,52.70
2023-05-09T07:50:02.750Z,52.35
2023-05-09T07:53:05.411Z,50.76
2023-05-09T07:56:08.076Z,51.23
2023-05-09T07:59:10.812Z,51.11
2023-05-09T08:02:13.423Z,51.20
2023-05-09T08:05:16.507Z,50.62
2023-05-09T08:08:19.347Z,49.44
2023-05-09T08:11:22.058Z,48.97
2023-05-09T08:14:24.691Z,49.09
2023-05-09T08:17:27.320Z,48.56
2023-05-09T08:20:31.882Z,48.98
2023-05-09T08:23:34.812Z,49.81
2023-05-09T08:26:37.501Z,49.84
2023-05-09T08:29:40.774Z,49.58
2023-05-09T08:32:43.289Z,49.84
2023-05-09T08:35:50.511Z,48.41
2023-05-09T08:38:53.298Z,48.50
2023-05-09T08:42:00.244Z,48.32
2023-05-09T08:45:16.316Z,47.14
2023-05-09T08:48:19.598Z,47.25
2023-05-09T08:51:22.416Z,47.61
2023-05-09T08:54:27.499Z,46.52
2023-05-09T08:57:32.958Z,47.11
2023-05-09T09:00:38.973Z,45.70
2023-05-09T09:03:47.805Z,45.92
2023-05-09T09:06:53.035Z,45.88
2023-05-09T09:09:57.788Z,46.10
2023-05-09T09:13:03.519Z,45.98
2023-05-09T09:16:09.016Z,46.19
2023-05-09T09:19:13.765Z,45.88
2023-05-09T09:22:19.398Z,45.37
2023-05-09T09:25:22.060Z,46.49
2023-05-09T09:28:24.727Z,46.35
2023-05-09T09:31:31.737Z,45.43
2023-05-09T09:34:34.471Z,45.12
2023-05-09T09:37:43.649Z,45.08
2023-05-09T09:40:52.316Z,44.27
2023-05-09T09:43:58.189Z,44.30
2023-05-09T09:47:01.704Z,44.30
2023-05-09T09:50:15.477Z,44.83
2023-05-09T09:53:20.844Z,45.55
2023-05-09T09:56:39.170Z,44.40
2023-05-09T09:59:42.750Z,44.14
2023-05-09T10:02:56.483Z,43.66
2023-05-09T10:06:02.532Z,43.77
2023-05-09T10:09:05.179Z,43.73
2023-05-09T10:12:08.667Z,43.68
2023-05-09T10:15:12.961Z,44.70
2023-05-09T10:18:20.335Z,43.90
2023-05-09T10:21:22.989Z,42.61
2023-05-09T10:24:35.540Z,43.07
2023-05-09T10:27:41.528Z,43.08
2023-05-09T10:30:59.978Z,42.88
2023-05-09T10:34:09.902Z,42.40
2023-05-09T10:37:12.705Z,42.56
2023-05-09T10:40:15.786Z,42.30
2023-05-09T10:43:18.634Z,41.76
2023-05-09T10:46:23.626Z,41.62
2023-05-09T10:49:26.906Z,41.47
2023-05-09T10:52:35.881Z,41.51
2023-05-09T10:55:48.608Z,41.66
2023-05-09T10:58:51.254Z,41.28
2023-05-09T11:02:01.077Z,41.43
2023-05-09T11:05:18.285Z,41.34
2023-05-09T11:08:23.379Z,40.46
2023-05-09T11:11:26.100Z,40.58
2023-05-09T11:14:41.124Z,40.45
2023-05-09T11:17:43.778Z,40.23
2023-05-09T11:20:49.138Z,40.54
2023-05-09T11:23:54.448Z,40.76
2023-05-09T11:26:57.927Z,40.51
2023-05-09T11:30:05.572Z,40.70
2023-05-09T11:33:27.337Z,40.05
2023-05-09T11:36:33.706Z,39.30
2023-05-09T11:39:55.583Z,39.47
2023-05-09T11:42:59.448Z,39.53
2023-05-09T11:46:03.507Z,39.32
2023-05-09T11:49:10.627Z,39.59
2023-05-09T11:52:14.524Z,38.83
2023-05-09T11:55:19.888Z,39.56
2023-05-09T11:58:22.532Z,40.68
2023-05-09T12:01:25.780Z,40.66
2023-05-09T12:04:30.486Z,39.77
2023-05-09T12:07:33.050Z,39.05
2023-05-09T12:10:40.323Z,39.09
2023-05-09T12:13:48.556Z,38.95
2023-05-09T12:16:51.160Z,38.83
2023-05-09T12:19:54.232Z,39.09
2023-05-09T12:22:56.913Z,38.61
2023-05-09T12:25:59.583Z,39.21
2023-05-09T12:29:02.262Z,38.40
2023-05-09T12:32:05.419Z,38.17
2023-05-09T12:35:10.770Z,37.43
2023-05-09T12:38:23.441Z,37.59
2023-05-09T12:44:31.882Z,37.69
2023-05-09T12:47:34.541Z,38.21
2023-05-09T12:50:37.187Z,38.25
2023-05-09T12:53:41.762Z,37.76
2023-05-09T12:56:45.362Z,37.45
2023-05-09T12:59:48.336Z,37.52
2023-05-09T13:02:53.145Z,37.75
2023-05-09T13:06:01.160Z,37.80
2023-05-09T13:09:08.120Z,37.70
2023-05-09T13:12:10.821Z,37.26
2023-05-09T13:15:14.473Z,37.08
2023-05-09T13:18:17.759Z,36.85
2023-05-09T13:21:21.230Z,36.66
2023-05-09T13:24:23.982Z,36.31
2023-05-09T13:27:28.082Z,36.82
2023-05-09T13:30:31.252Z,37.28
2023-05-09T13:33:34.031Z,37.75
2023-05-09T13:36:36.770Z,37.01
2023-05-09T13:39:39.562Z,36.25
2023-05-09T13:42:42.378Z,36.02
2023-05-09T13:45:45.004Z,35.75
2023-05-09T13:48:48.072Z,35.88
2023-05-09T13:51:50.938Z,36.03
2023-05-09T13:54:53.618Z,36.01
2023-05-09T13:57:56.474Z,35.34
2023-05-09T14:00:59.155Z,35.39
2023-05-09T14:04:02.788Z,35.00
2023-05-09T14:07:05.506Z,34.49
2023-05-09T14:10:11.969Z,34.20
2023-05-09T14:13:15.916Z,34.35
2023-05-09T14:16:22.339Z,33.96
2023-05-09T14:19:30.160Z,32.79
2023-05-09T14:22:32.862Z,31.76
2023-05-09T14:25:35.505Z,32.49
2023-05-09T14:28:38.374Z,32.71
2023-05-09T14:31:41.075Z,32.29
2023-05-09T14:34:44.072Z,32.10
2023-05-09T14:37:47.606Z,32.73
2023-05-09T14:40:50.171Z,32.06
2023-05-09T14:43:52.839Z,31.68
2023-05-09T14:46:55.772Z,31.71
2023-05-09T14:49:58.772Z,31.09
2023-05-09T14:53:02.255Z,30.08
2023-05-09T14:56:05.777Z,30.30
2023-05-09T14:59:09.637Z,29.66
2023-05-09T15:02:12.627Z,30.78
2023-05-09T15:05:15.995Z,30.54
2023-05-09T15:08:19.065Z,31.23
2023-05-09T15:11:22.134Z,29.85
2023-05-09T15:14:24.849Z,29.30
2023-05-09T15:17:27.566Z,28.99
2023-05-09T15:20:30.130Z,29.40
2023-05-09T15:23:32.911Z,29.45
2023-05-09T15:26:35.766Z,28.96
2023-05-09T15:29:38.840Z,29.70
2023-05-09T15:32:41.696Z,29.52
2023-05-09T15:35:45.295Z,30.10
2023-05-09T15:38:49.719Z,29.86
2023-05-09T15:41:52.753Z,28.91
2023-05-09T15:44:55.354Z,28.41
2023-05-09T15:47:59.087Z,27.60
2023-05-09T15:51:02.821Z,27.60
2023-05-09T15:54:05.465Z,27.37
2023-05-09T15:57:08.353Z,26.63
2023-05-09T16:00:12.459Z,26.34
2023-05-09T16:03:15.439Z,26.05
2023-05-09T16:06:18.402Z,25.36
2023-05-09T16:09:21.558Z,25.34
2023-05-09T16:12:25.238Z,24.13
2023-05-09T16:15:27.829Z,24.54
2023-05-09T16:18:30.394Z,24.46
2023-05-09T16:21:33.422Z,25.03
2023-05-09T16:24:37.395Z,25.76
2023-05-09T16:27:40.143Z,26.56
2023-05-09T16:30:42.696Z,26.78
2023-05-09T16:33:47.142Z,27.67
2023-05-09T16:36:49.965Z,28.13
2023-05-09T16:39:52.472Z,28.40
2023-05-09T16:42:55.087Z,28.20
2023-05-09T16:45:57.770Z,28.38
2023-05-09T16:49:00.418Z,29.50
2023-05-09T16:52:03.008Z,29.42
2023-05-09T16:55:06.172Z,28.99
2023-05-09T16:58:08.760Z,29.28
2023-05-09T17:01:11.790Z,29.83
2023-05-09T17:04:14.820Z,29.78
2023-05-09T17:07:17.380Z,29.74
2023-05-09T17:10:20.039Z,29.70
2023-05-09T17:13:22.787Z,30.08
2023-05-09T17:16:25.616Z,30.08
2023-05-09T17:19:28.301Z,30.18
2023-05-09T17:22:30.968Z,30.58
2023-05-09T17:25:33.525Z,30.57
2023-05-09T17:28:36.147Z,30.89
2023-05-09T17:31:38.775Z,31.34
2023-05-09T17:34:41.744Z,31.22
2023-05-09T17:37:44.498Z,31.15
2023-05-09T17:40:47.579Z,31.17
2023-05-09T17:43:52.183Z,31.60
2023-05-09T17:46:54.947Z,31.60
2023-05-09T17:49:57.518Z,31.38
2023-05-09T17:53:00.545Z,31.85
2023-05-09T17:56:03.234Z,31.77
2023-05-09T17:59:06.646Z,31.98
2023-05-09T18:02:09.290Z,32.04
2023-05-09T18:05:11.890Z,32.29
2023-05-09T18:08:14.523Z,32.85
2023-05-09T18:11:17.149Z,33.07
2023-05-09T18:14:19.727Z,33.47
2023-05-09T18:17:22.367Z,33.87
2023-05-09T18:20:25.078Z,33.99
2023-05-09T18:23:31.749Z,34.35
2023-05-09T18:26:34.280Z,34.66
2023-05-09T18:29:38.097Z,35.02
2023-05-09T18:32:41.227Z,35.37
2023-05-09T18:35:43.917Z,35.69
2023-05-09T18:38:47.933Z,35.92
2023-05-09T18:41:50.797Z,36.23
2023-05-09T18:44:53.672Z,36.48
2023-05-09T18:47:56.249Z,36.49
2023-05-09T18:50:59.103Z,36.77
2023-05-09T18:54:02.114Z,37.01
2023-05-09T18:57:04.740Z,37.08
2023-05-09T19:00:08.329Z,37.48
2023-05-09T19:03:10.962Z,37.37
2023-05-09T19:06:14.791Z,37.64
2023-05-09T19:09:18.162Z,37.68
2023-05-09T19:12:20.932Z,37.88
2023-05-09T19:15:23.593Z,37.85
2023-05-09T19:18:26.340Z,38.25
2023-05-09T19:21:29.832Z,38.52
2023-05-09T19:24:53.190Z,38.84
2023-05-09T19:27:56.369Z,38.88
2023-05-09T19:30:59.151Z,39.19
2023-05-09T19:34:02.003Z,39.28
2023-05-09T19:37:04.564Z,39.65
2023-05-09T19:40:13.452Z,40.04
2023-05-09T19:43:16.787Z,40.48
2023-05-09T19:46:19.473Z,40.27
2023-05-09T19:49:22.293Z,40.22
2023-05-09T19:52:24.947Z,40.37
2023-05-09T19:55:27.922Z,40.90
2023-05-09T19:58:30.425Z,40.97
2023-05-09T20:01:33.094Z,41.09
2023-05-09T20:04:36.537Z,41.41
2023-05-09T20:10:57.449Z,42.10
2023-05-09T20:14:00.112Z,41.84
2023-05-09T20:17:04.388Z,42.10
2023-05-09T20:20:07.685Z,41.95
2023-05-09T20:23:10.751Z,42.67
2023-05-09T20:26:13.410Z,42.62
2023-05-09T20:29:16.277Z,42.41
2023-05-09T20:32:18.938Z,42.69
2023-05-09T20:35:21.711Z,42.98
2023-05-09T20:38:24.376Z,43.77
2023-05-09T20:41:49.247Z,43.02
2023-05-09T20:44:53.038Z,43.91
2023-05-09T20:47:56.074Z,43.84
2023-05-09T20:50:58.787Z,43.83
2023-05-09T20:54:01.441Z,43.59
2023-05-09T20:57:09.122Z,43.74
2023-05-09T21:00:12.349Z,43.86
2023-05-09T21:03:15.179Z,43.65
2023-05-09T21:06:18.146Z,44.19
2023-05-09T21:09:20.817Z,44.04
2023-05-09T21:12:30.852Z,43.73
2023-05-09T21:15:33.518Z,44.60
2023-05-09T21:22:32.153Z,45.21
2023-05-09T21:25:34.815Z,44.98
2023-05-09T21:28:59.384Z,45.24
2023-05-09T21:32:02.066Z,45.10
2023-05-09T21:35:07.407Z,44.89
2023-05-09T21:38:10.036Z,45.63
2023-05-09T21:41:12.701Z,45.57
2023-05-09T21:44:22.530Z,45.03
2023-05-09T21:47:25.370Z,44.85
2023-05-09T21:54:27.431Z,45.68
2023-05-09T21:57:30.086Z,45.90
2023-05-09T22:00:49.066Z,46.01
2023-05-09T22:03:51.991Z,45.76
2023-05-09T22:06:54.764Z,46.63
2023-05-09T22:13:48.221Z,46.34
2023-05-09T22:16:50.917Z,46.49
2023-05-09T22:19:53.742Z,46.25
2023-05-09T22:22:56.714Z,45.93
2023-05-09T22:25:59.365Z,46.04
2023-05-09T22:29:02.133Z,46.49
2023-05-09T22:32:07.768Z,46.38
2023-05-09T22:35:10.743Z,46.95
2023-05-09T22:38:23.531Z,47.00
2023-05-09T22:41:26.319Z,46.91
2023-05-09T22:44:35.737Z,47.42
2023-05-09T22:47:38.306Z,47.38
2023-05-09T22:50:41.223Z,47.44
2023-05-09T22:53:43.811Z,47.51
2023-05-09T22:56:47.501Z,47.89
2023-05-09T22:59:50.278Z,47.30
2023-05-09T23:02:52.964Z,47.48
2023-05-09T23:05:55.905Z,47.86
2023-05-09T23:08:58.572Z,47.76
2023-05-09T23:12:01.424Z,48.15
2023-05-09T23:15:05.841Z,48.35
2023-05-09T23:18:08.591Z,48.43
2023-05-09T23:21:11.263Z,48.16
2023-05-09T23:24:13.846Z,48.03
2023-05-09T23:27:16.410Z,48.43
2023-05-09T23:30:19.045Z,48.26
2023-05-09T23:33:21.655Z,48.41
2023-05-09T23:36:24.193Z,48.59
2023-05-09T23:39:26.701Z,48.75
2023-05-09T23:42:29.322Z,48.50
2023-05-09T23:45:32.300Z,48.69
2023-05-09T23:48:34.957Z,49.03
2023-05-09T23:51:37.831Z,49.04
2023-05-09T23:54:40.590Z,48.82
2023-05-09T23:57:43.246Z,49.09
